Bath, ME

2:11 PM EDT on June 23, 2017 (GMT -0400)
Central Bath | | Change Station

Elev 108 ft 43.91 °N, 69.82 °W | Updated 5 seconds ago

Overcast
Overcast
73.6 °F
Feels Like 75 °F
N
1.1
Wind Variable Wind from ESE

Today
High -- | Low -- °F
--% Chance of Precip.
Yesterday
High -- | Low -- °F
Precip. -- in
Pressure 29.74 in
Visibility 10.0 miles
Clouds Scattered Clouds 800 ft
Mostly Cloudy 9000 ft
Mostly Cloudy 11000 ft
Heat Index 75 °F
Dew Point 65 °F
Humidity 75%
Rainfall 0.00 in
Snow Depth Not available.
4:57 AM 8:25 PM
Waning Crescent, 0% visible
METAR KIWI 231753Z AUTO 16004KT 10SM SCT008 BKN090 BKN110 20/17 A2974 RMK AO2 SLP071 60000 T02000172 10206 20161 58014
Pressure 29.74 in
Visibility 10.0 miles
Clouds Scattered Clouds 800 ft
Mostly Cloudy 9000 ft
Mostly Cloudy 11000 ft
Heat Index 75 °F
Dew Point 65 °F
Humidity 75%
Rainfall 0.00 in
Snow Depth Not available.
4:57 AM 8:25 PM
Waning Crescent, 0% visible
METAR KIWI 231753Z AUTO 16004KT 10SM SCT008 BKN090 BKN110 20/17 A2974 RMK AO2 SLP071 60000 T02000172 10206 20161 58014

Get Severe Weather Alerts

Thanks for signing up!

Be on the lookout for a verification email in your inbox.

You'll start receiving the daily forecast at 6 AM.

×

10-Day Weather Forecast

Almanac

Astronomy

Jun. 23, 2017 Rise Set
Actual Time
Civil Twilight
Nautical Twilight
Astronomical Twilight
Moon
Length of Visible Light
Length of Day
Tomorrow will be .
, % of the Moon is Illuminated

Today's Extremes

State Highs State Lows

Community

WunderPhotos

Category 6

Welcome to Category 6. This is the collective home for Weather Underground's featured writeups by Dr. Jeff Masters (right), Bob Henson (left), Chris Burt, and other regular contributors.

Nearby

Air Quality

  Air Quality AQ Index Pollutant
Not available.

Snow Depth

Station Depth Elevation

Earthquake Activity

City Distance Mag. Time & Date
Minimum magnitude displayed is 2.5.

Coastal Water Temperatures

Place Temperature

Stations

Nearby Weather Stations

Station Location Temp. Windchill Dew Point Humidity Wind Precip. Elev Updated Type
                   

Watches & Warnings

There are currently no watches in effect.